Time;durP1;ratioP1;P1;durP2;ratioP2;P2;SDS_P1;SDS_P2;PMS_P1;PMS_P2;Temp;Humidity;BMP_temperature;BMP_pressure;BME280_temperature;BME280_humidity;BME280_pressure;Samples;Min_cycle;Max_cycle;Signal;HPM_P1;HPM_P2
2022/11/17 00:00:40;;;;;;;42.37;15.30;;;;;;;;;;5092957;28;20462;-71
2022/11/17 00:03:07;;;;;;;118.67;20.80;;;;;;;;;;5092946;28;20464;-71
2022/11/17 00:05:35;;;;;;;77.63;18.53;;;;;;;;;;5091970;28;20858;-70
2022/11/17 00:08:02;;;;;;;56.30;15.83;;;;;;;;;;5092739;28;20908;-71
2022/11/17 00:10:29;;;;;;;78.53;16.53;;;;;;;;;;5092773;28;20454;-71
2022/11/17 00:15:43;;;;;;;104.10;18.30;;;;;;;;;;5092034;28;20434;-70
2022/11/17 00:23:48;;;;;;;108.80;19.70;;;;;;;;;;5092088;28;20950;-70
2022/11/17 00:26:16;;;;;;;148.40;20.97;;;;;;;;;;5092561;28;20496;-71
2022/11/17 00:28:45;;;;;;;72.10;16.57;;;;;;;;;;5092580;28;20544;-70
2022/11/17 00:34:06;;;;;;;93.33;19.43;;;;;;;;;;5091900;28;20848;-70
2022/11/17 00:36:38;;;;;;;219.10;24.47;;;;;;;;;;5092399;28;20541;-70
2022/11/17 00:39:05;;;;;;;199.40;21.33;;;;;;;;;;5093445;28;20493;-70
2022/11/17 00:41:32;;;;;;;147.03;23.80;;;;;;;;;;5096430;28;20827;-70
2022/11/17 00:44:01;;;;;;;326.00;33.80;;;;;;;;;;5095671;28;20955;-71
2022/11/17 00:46:28;;;;;;;194.07;25.60;;;;;;;;;;5096164;28;21003;-71
2022/11/17 00:48:55;;;;;;;108.37;18.53;;;;;;;;;;5096339;28;20450;-71
2022/11/17 00:51:22;;;;;;;255.43;27.53;;;;;;;;;;5096584;28;20442;-71
2022/11/17 00:53:50;;;;;;;255.40;29.10;;;;;;;;;;5095164;28;20500;-70
2022/11/17 00:56:17;;;;;;;200.53;24.60;;;;;;;;;;5095958;28;20467;-71
2022/11/17 00:58:44;;;;;;;176.53;22.63;;;;;;;;;;5096394;28;20446;-71
2022/11/17 01:01:14;;;;;;;357.93;36.40;;;;;;;;;;5095907;28;20451;-71
2022/11/17 01:03:41;;;;;;;442.70;39.93;;;;;;;;;;5095388;28;20959;-70
2022/11/17 01:06:09;;;;;;;393.20;36.47;;;;;;;;;;5095722;28;20497;-70
2022/11/17 01:08:36;;;;;;;227.57;28.47;;;;;;;;;;5095867;28;20451;-70
2022/11/17 01:11:08;;;;;;;216.60;25.73;;;;;;;;;;5095823;28;20939;-70
2022/11/17 01:13:35;;;;;;;275.13;27.97;;;;;;;;;;5095106;28;20462;-70
2022/11/17 01:16:03;;;;;;;245.93;32.97;;;;;;;;;;5095831;28;20807;-70
2022/11/17 01:18:32;;;;;;;217.77;23.93;;;;;;;;;;5095769;28;20438;-70
2022/11/17 01:21:04;;;;;;;301.97;31.70;;;;;;;;;;5095768;28;20447;-70
2022/11/17 01:23:31;;;;;;;322.67;29.77;;;;;;;;;;5095005;28;20451;-70
2022/11/17 01:26:01;;;;;;;184.73;21.00;;;;;;;;;;5095292;28;21053;-70
2022/11/17 01:28:29;;;;;;;179.80;19.97;;;;;;;;;;5095562;28;20451;-70
2022/11/17 01:30:59;;;;;;;181.03;23.37;;;;;;;;;;5095452;28;20450;-71
2022/11/17 01:33:26;;;;;;;247.73;25.43;;;;;;;;;;5095230;28;20447;-70
2022/11/17 01:35:55;;;;;;;235.67;23.53;;;;;;;;;;5095158;28;20451;-70
2022/11/17 01:38:22;;;;;;;241.83;24.07;;;;;;;;;;5093978;28;20457;-70
2022/11/17 01:40:49;;;;;;;275.97;26.30;;;;;;;;;;5095334;28;20455;-70
2022/11/17 01:43:16;;;;;;;212.80;24.00;;;;;;;;;;5095362;28;20451;-71
2022/11/17 01:45:44;;;;;;;158.50;18.90;;;;;;;;;;5094397;28;20478;-71
2022/11/17 01:48:14;;;;;;;305.13;29.07;;;;;;;;;;5094897;28;20458;-70
2022/11/17 01:50:44;;;;;;;191.60;20.83;;;;;;;;;;5095125;28;20458;-70
2022/11/17 01:53:14;;;;;;;142.73;18.77;;;;;;;;;;5095268;28;20835;-71
2022/11/17 01:55:43;;;;;;;265.10;24.53;;;;;;;;;;5094194;28;20450;-71
2022/11/17 01:58:16;;;;;;;116.13;15.77;;;;;;;;;;5094930;28;20958;-70
2022/11/17 02:00:43;;;;;;;150.90;16.63;;;;;;;;;;5094630;28;20828;-70
2022/11/17 02:03:10;;;;;;;87.40;15.80;;;;;;;;;;5094746;28;20450;-71
2022/11/17 02:05:42;;;;;;;89.60;16.60;;;;;;;;;;5094138;28;20854;-71
2022/11/17 02:08:09;;;;;;;90.63;15.40;;;;;;;;;;5094787;28;20447;-71
2022/11/17 02:10:39;;;;;;;102.80;17.90;;;;;;;;;;5094501;28;20948;-71
2022/11/17 02:13:07;;;;;;;172.47;18.07;;;;;;;;;;5094561;28;20473;-71
2022/11/17 02:15:34;;;;;;;81.50;16.83;;;;;;;;;;5093826;28;20449;-71
2022/11/17 02:18:02;;;;;;;65.23;13.50;;;;;;;;;;5094660;28;20443;-71
2022/11/17 02:20:35;;;;;;;109.07;16.63;;;;;;;;;;5094346;28;20451;-70
2022/11/17 02:23:21;;;;;;;286.03;28.73;;;;;;;;;;5094439;28;20450;-70
2022/11/17 02:26:07;;;;;;;88.70;17.37;;;;;;;;;;5093536;28;20497;-70
2022/11/17 02:28:36;;;;;;;96.57;15.30;;;;;;;;;;5094192;28;20482;-70
2022/11/17 02:31:11;;;;;;;91.23;16.07;;;;;;;;;;5094343;28;20443;-70
2022/11/17 02:33:41;;;;;;;55.67;12.87;;;;;;;;;;5093760;28;20442;-70
2022/11/17 02:36:10;;;;;;;86.87;15.17;;;;;;;;;;5094176;28;20477;-70
2022/11/17 02:38:41;;;;;;;84.50;13.10;;;;;;;;;;5092057;28;20455;-70
2022/11/17 02:41:12;;;;;;;74.87;13.13;;;;;;;;;;5094127;28;20454;-70
2022/11/17 02:46:29;;;;;;;83.00;13.27;;;;;;;;;;5093758;28;20482;-70
2022/11/17 02:48:59;;;;;;;90.03;15.20;;;;;;;;;;5093866;28;20948;-70
2022/11/17 02:51:26;;;;;;;112.63;15.57;;;;;;;;;;5093775;28;20773;-70
2022/11/17 02:53:54;;;;;;;62.00;14.23;;;;;;;;;;5093369;28;20455;-70
2022/11/17 02:56:22;;;;;;;27.43;9.70;;;;;;;;;;5093660;28;20474;-71
2022/11/17 02:58:51;;;;;;;35.17;10.17;;;;;;;;;;5093461;28;20803;-70
2022/11/17 03:01:26;;;;;;;35.20;8.90;;;;;;;;;;5093217;28;20833;-70
2022/11/17 03:04:01;;;;;;;29.90;9.20;;;;;;;;;;5092856;28;20457;-70
2022/11/17 03:06:35;;;;;;;72.90;11.20;;;;;;;;;;5093860;28;20517;-70
2022/11/17 03:09:06;;;;;;;29.13;9.90;;;;;;;;;;5093675;28;20483;-70
2022/11/17 03:11:40;;;;;;;25.80;7.83;;;;;;;;;;5093645;28;20805;-70
2022/11/17 03:14:10;;;;;;;37.90;11.70;;;;;;;;;;5092646;28;20474;-71
2022/11/17 03:16:39;;;;;;;43.67;10.03;;;;;;;;;;5093240;28;20964;-70
2022/11/17 03:19:10;;;;;;;17.80;8.87;;;;;;;;;;5093640;28;20462;-70
2022/11/17 03:21:39;;;;;;;62.90;12.57;;;;;;;;;;5093284;28;20469;-70
2022/11/17 03:24:10;;;;;;;23.00;10.00;;;;;;;;;;5092532;28;20458;-70
2022/11/17 03:26:40;;;;;;;15.57;8.07;;;;;;;;;;5092966;28;20490;-70
2022/11/17 03:29:10;;;;;;;20.60;9.83;;;;;;;;;;5093075;28;20455;-70
2022/11/17 03:31:38;;;;;;;19.60;9.40;;;;;;;;;;5093204;28;20952;-70
2022/11/17 03:34:07;;;;;;;32.73;9.87;;;;;;;;;;5092386;28;20461;-70
2022/11/17 03:36:35;;;;;;;23.20;9.60;;;;;;;;;;5092816;28;20469;-70
2022/11/17 03:39:05;;;;;;;18.40;8.63;;;;;;;;;;5091812;28;20446;-70
2022/11/17 03:41:34;;;;;;;17.30;10.10;;;;;;;;;;5093200;28;20462;-70
2022/11/17 03:44:02;;;;;;;15.67;8.83;;;;;;;;;;5092528;28;20457;-70
2022/11/17 03:46:31;;;;;;;15.27;8.73;;;;;;;;;;5093079;28;20995;-70
2022/11/17 03:49:00;;;;;;;19.93;9.23;;;;;;;;;;5092845;28;20545;-70
2022/11/17 03:51:28;;;;;;;22.97;9.60;;;;;;;;;;5092929;28;20457;-70
2022/11/17 03:53:56;;;;;;;11.73;7.73;;;;;;;;;;5092252;28;20451;-70
2022/11/17 03:56:29;;;;;;;14.83;9.90;;;;;;;;;;5092957;28;20843;-70
2022/11/17 03:58:59;;;;;;;12.50;8.93;;;;;;;;;;5092689;28;20460;-70
2022/11/17 04:01:28;;;;;;;18.17;8.40;;;;;;;;;;5092728;28;20457;-70
2022/11/17 04:03:56;;;;;;;20.27;9.57;;;;;;;;;;5092129;28;20447;-70
2022/11/17 04:06:23;;;;;;;9.00;6.97;;;;;;;;;;5092631;28;20490;-70
2022/11/17 04:08:50;;;;;;;15.97;9.03;;;;;;;;;;5092611;28;20453;-70
2022/11/17 04:16:47;;;;;;;21.70;10.80;;;;;;;;;;5096748;28;20445;-70
2022/11/17 04:19:15;;;;;;;16.63;10.27;;;;;;;;;;5096706;28;20458;-70
2022/11/17 04:21:42;;;;;;;13.70;8.90;;;;;;;;;;5096729;28;20455;-70
2022/11/17 04:24:10;;;;;;;15.53;9.73;;;;;;;;;;5095932;28;20451;-70
2022/11/17 04:29:21;;;;;;;12.37;8.20;;;;;;;;;;5096650;28;20498;-70
2022/11/17 04:31:48;;;;;;;13.40;8.37;;;;;;;;;;5096497;28;20455;-71
2022/11/17 04:34:17;;;;;;;16.83;7.93;;;;;;;;;;5096074;28;20450;-70
2022/11/17 04:36:44;;;;;;;12.23;9.27;;;;;;;;;;5096328;28;20471;-70
2022/11/17 04:39:12;;;;;;;15.90;10.23;;;;;;;;;;5093877;28;20450;-70
2022/11/17 04:41:55;;;;;;;12.40;8.20;;;;;;;;;;5096383;28;20450;-70
2022/11/17 04:44:23;;;;;;;13.43;8.40;;;;;;;;;;5095898;28;20979;-70
2022/11/17 04:46:50;;;;;;;11.93;8.37;;;;;;;;;;5096076;28;20498;-70
2022/11/17 04:49:20;;;;;;;11.20;7.90;;;;;;;;;;5096030;28;20863;-70
2022/11/17 04:51:47;;;;;;;16.83;10.10;;;;;;;;;;5096194;28;20940;-70
2022/11/17 04:54:15;;;;;;;14.17;8.10;;;;;;;;;;5095548;28;20446;-70
2022/11/17 04:56:43;;;;;;;12.43;8.00;;;;;;;;;;5096091;28;20467;-71
2022/11/17 04:59:10;;;;;;;15.73;9.17;;;;;;;;;;5096100;28;20923;-71
2022/11/17 05:01:37;;;;;;;21.43;9.93;;;;;;;;;;5095846;28;20446;-70
2022/11/17 05:04:05;;;;;;;15.47;9.57;;;;;;;;;;5095439;28;20972;-70
2022/11/17 05:06:34;;;;;;;17.30;10.03;;;;;;;;;;5095769;28;20482;-70
2022/11/17 05:09:02;;;;;;;14.13;9.50;;;;;;;;;;5096025;28;20800;-70
2022/11/17 05:14:16;;;;;;;20.70;9.57;;;;;;;;;;5095091;28;20572;-71
2022/11/17 05:19:29;;;;;;;20.97;9.70;;;;;;;;;;5095723;28;20418;-70
2022/11/17 05:21:57;;;;;;;33.50;10.20;;;;;;;;;;5095636;28;20864;-70
2022/11/17 05:24:24;;;;;;;20.20;9.97;;;;;;;;;;5094500;28;20951;-70
2022/11/17 05:26:51;;;;;;;28.73;10.33;;;;;;;;;;5095238;28;20509;-70
2022/11/17 05:29:20;;;;;;;28.40;11.23;;;;;;;;;;5095467;28;20454;-70
2022/11/17 05:31:47;;;;;;;65.50;12.80;;;;;;;;;;5095233;28;20494;-70
2022/11/17 05:34:16;;;;;;;20.60;10.90;;;;;;;;;;5094811;28;20477;-71
2022/11/17 05:36:43;;;;;;;31.63;10.80;;;;;;;;;;5095156;28;20475;-70
2022/11/17 05:39:12;;;;;;;17.20;10.27;;;;;;;;;;5092934;28;20442;-70
2022/11/17 05:41:40;;;;;;;32.27;10.40;;;;;;;;;;5095008;28;20491;-70
2022/11/17 05:44:07;;;;;;;29.60;11.77;;;;;;;;;;5094603;28;20451;-70
2022/11/17 05:46:34;;;;;;;18.03;9.80;;;;;;;;;;5095158;28;20492;-70
2022/11/17 05:49:01;;;;;;;22.57;9.83;;;;;;;;;;5095199;28;20447;-70
2022/11/17 05:51:30;;;;;;;14.50;10.20;;;;;;;;;;5094967;28;20453;-70
2022/11/17 05:53:58;;;;;;;18.60;11.40;;;;;;;;;;5094172;28;20893;-70
2022/11/17 05:56:37;;;;;;;16.10;10.03;;;;;;;;;;5094913;28;20841;-71
2022/11/17 05:59:11;;;;;;;13.80;10.10;;;;;;;;;;5094903;28;20455;-70
2022/11/17 06:01:40;;;;;;;18.10;11.03;;;;;;;;;;5094941;28;20457;-71
2022/11/17 06:04:08;;;;;;;21.53;11.70;;;;;;;;;;5094155;28;20447;-70
2022/11/17 06:06:36;;;;;;;18.50;10.90;;;;;;;;;;5094496;28;20530;-70
2022/11/17 06:09:03;;;;;;;27.90;16.33;;;;;;;;;;5094872;28;20447;-71
2022/11/17 06:11:31;;;;;;;19.40;11.00;;;;;;;;;;5094681;28;20455;-70
2022/11/17 06:13:59;;;;;;;14.87;9.93;;;;;;;;;;5094003;28;20469;-70
2022/11/17 06:16:28;;;;;;;21.10;11.20;;;;;;;;;;5094589;28;20467;-71
2022/11/17 06:18:56;;;;;;;16.73;11.97;;;;;;;;;;5094386;28;20465;-70
2022/11/17 06:21:24;;;;;;;16.20;10.47;;;;;;;;;;5094563;28;20450;-70
2022/11/17 06:23:51;;;;;;;18.73;9.97;;;;;;;;;;5093782;28;20966;-72
2022/11/17 06:26:18;;;;;;;18.90;10.97;;;;;;;;;;5094263;28;20972;-70
2022/11/17 06:28:47;;;;;;;16.63;10.10;;;;;;;;;;5094377;28;20490;-70
2022/11/17 06:31:17;;;;;;;14.70;9.17;;;;;;;;;;5094453;28;20825;-70
2022/11/17 06:33:44;;;;;;;13.23;9.00;;;;;;;;;;5088205;28;20451;-70
2022/11/17 06:36:11;;;;;;;18.27;11.73;;;;;;;;;;5091323;28;20553;-70
2022/11/17 06:38:39;;;;;;;16.33;9.20;;;;;;;;;;5092006;28;20454;-70
2022/11/17 06:41:07;;;;;;;14.10;9.13;;;;;;;;;;5093793;28;20453;-70
2022/11/17 06:43:34;;;;;;;18.07;10.40;;;;;;;;;;5093603;28;20457;-71
2022/11/17 06:46:05;;;;;;;15.30;10.97;;;;;;;;;;5093896;28;20858;-71
2022/11/17 06:48:35;;;;;;;12.30;8.90;;;;;;;;;;5093227;28;20506;-71
2022/11/17 06:51:04;;;;;;;12.10;8.30;;;;;;;;;;5093503;28;20455;-71
2022/11/17 06:53:31;;;;;;;14.70;8.87;;;;;;;;;;5093265;28;20500;-71
2022/11/17 06:56:04;;;;;;;12.90;8.57;;;;;;;;;;5093125;28;20916;-71
2022/11/17 06:58:31;;;;;;;12.93;8.30;;;;;;;;;;5090742;28;20863;-71
2022/11/17 07:01:02;;;;;;;11.73;9.53;;;;;;;;;;5091711;28;20454;-71
2022/11/17 07:03:29;;;;;;;12.40;9.97;;;;;;;;;;5091537;28;20435;-71
2022/11/17 07:06:00;;;;;;;12.73;8.90;;;;;;;;;;5091935;28;20465;-71
2022/11/17 07:08:28;;;;;;;13.07;9.63;;;;;;;;;;5091683;28;20845;-71
2022/11/17 07:10:55;;;;;;;12.97;8.50;;;;;;;;;;5091534;28;20454;-71
2022/11/17 07:13:23;;;;;;;14.07;10.70;;;;;;;;;;5091562;28;20453;-71
2022/11/17 07:15:50;;;;;;;31.23;19.80;;;;;;;;;;5091367;28;20446;-71
2022/11/17 07:18:18;;;;;;;14.97;11.23;;;;;;;;;;5091784;28;20944;-71
2022/11/17 07:20:45;;;;;;;26.43;16.37;;;;;;;;;;5091721;28;20511;-71
2022/11/17 07:23:14;;;;;;;23.83;14.77;;;;;;;;;;5092054;28;20948;-71
2022/11/17 07:25:41;;;;;;;19.80;13.57;;;;;;;;;;5091073;28;20481;-70
2022/11/17 07:28:08;;;;;;;17.53;11.47;;;;;;;;;;5092012;28;20494;-71
2022/11/17 07:30:35;;;;;;;16.40;11.10;;;;;;;;;;5091817;28;20458;-71
2022/11/17 07:33:02;;;;;;;16.93;10.23;;;;;;;;;;5091635;28;20491;-71
2022/11/17 07:35:30;;;;;;;15.63;11.77;;;;;;;;;;5091747;28;20449;-71
2022/11/17 07:37:58;;;;;;;17.20;11.73;;;;;;;;;;5089502;28;20466;-71
2022/11/17 07:40:26;;;;;;;16.73;12.20;;;;;;;;;;5090790;28;20532;-71
2022/11/17 07:42:53;;;;;;;19.13;12.87;;;;;;;;;;5091457;28;20451;-71
2022/11/17 07:45:21;;;;;;;18.07;11.93;;;;;;;;;;5091341;28;20447;-71
2022/11/17 07:47:54;;;;;;;23.67;12.77;;;;;;;;;;5091199;28;20490;-71
2022/11/17 07:50:21;;;;;;;14.57;10.63;;;;;;;;;;5091616;28;20936;-70
2022/11/17 07:52:49;;;;;;;33.83;26.97;;;;;;;;;;5091173;28;20454;-71
2022/11/17 07:55:16;;;;;;;15.87;11.93;;;;;;;;;;5091243;28;20446;-71
2022/11/17 07:57:44;;;;;;;12.33;9.50;;;;;;;;;;5091211;28;20470;-71
2022/11/17 08:00:13;;;;;;;14.77;11.60;;;;;;;;;;5091523;28;20447;-71
2022/11/17 08:02:41;;;;;;;15.60;10.87;;;;;;;;;;5091428;28;20451;-71
2022/11/17 08:05:09;;;;;;;11.90;8.63;;;;;;;;;;5091016;28;20469;-71
2022/11/17 08:07:36;;;;;;;14.93;10.13;;;;;;;;;;5091045;28;20496;-71
2022/11/17 08:10:03;;;;;;;17.87;12.57;;;;;;;;;;5091506;28;20954;-71
2022/11/17 08:12:30;;;;;;;18.60;11.30;;;;;;;;;;5091254;28;20446;-71
2022/11/17 08:14:59;;;;;;;14.30;10.20;;;;;;;;;;5090544;28;20463;-71
2022/11/17 08:17:26;;;;;;;18.00;11.87;;;;;;;;;;5091155;28;20462;-70
2022/11/17 08:19:53;;;;;;;16.03;10.77;;;;;;;;;;5091185;28;20450;-71
2022/11/17 08:22:20;;;;;;;21.43;12.10;;;;;;;;;;5091185;28;20831;-71
2022/11/17 08:24:47;;;;;;;18.30;11.83;;;;;;;;;;5090555;28;20439;-71
2022/11/17 08:27:15;;;;;;;21.87;14.70;;;;;;;;;;5091114;28;20505;-71
2022/11/17 08:29:42;;;;;;;16.97;12.50;;;;;;;;;;5091180;28;20450;-71
2022/11/17 08:32:10;;;;;;;19.07;12.67;;;;;;;;;;5090967;28;20813;-71
2022/11/17 08:34:37;;;;;;;23.57;14.43;;;;;;;;;;5090579;28;20820;-71
2022/11/17 08:37:05;;;;;;;15.43;12.00;;;;;;;;;;5091089;28;20477;-71
2022/11/17 08:39:32;;;;;;;12.27;10.97;;;;;;;;;;5089950;28;20450;-71
2022/11/17 08:41:59;;;;;;;14.70;10.57;;;;;;;;;;5090940;28;20451;-71
2022/11/17 08:44:26;;;;;;;13.83;9.60;;;;;;;;;;5087678;28;20447;-71
2022/11/17 08:46:53;;;;;;;14.00;9.90;;;;;;;;;;5070337;28;20475;-71
2022/11/17 08:49:22;;;;;;;17.37;10.27;;;;;;;;;;5070610;28;20491;-72
2022/11/17 08:51:49;;;;;;;15.40;10.60;;;;;;;;;;5070465;28;20459;-71
2022/11/17 08:54:16;;;;;;;17.10;11.17;;;;;;;;;;5070251;28;20457;-72
2022/11/17 08:56:44;;;;;;;17.80;11.43;;;;;;;;;;5070520;28;20883;-71
2022/11/17 08:59:12;;;;;;;13.80;10.40;;;;;;;;;;5072381;28;20489;-71
2022/11/17 09:01:40;;;;;;;15.77;10.80;;;;;;;;;;5074159;28;20967;-71
2022/11/17 09:04:07;;;;;;;13.77;10.67;;;;;;;;;;5074003;28;20458;-71
2022/11/17 09:06:36;;;;;;;14.00;10.47;;;;;;;;;;5074236;28;20468;-71
2022/11/17 09:09:03;;;;;;;15.70;12.27;;;;;;;;;;5074288;28;20483;-71
2022/11/17 09:11:31;;;;;;;15.33;9.77;;;;;;;;;;5074275;28;20470;-71
2022/11/17 09:13:58;;;;;;;13.80;10.00;;;;;;;;;;5073587;28;20467;-72
2022/11/17 09:16:25;;;;;;;13.83;10.23;;;;;;;;;;5074129;28;20546;-72
2022/11/17 09:18:55;;;;;;;12.20;9.30;;;;;;;;;;5073971;28;20951;-72
2022/11/17 09:21:22;;;;;;;12.87;9.00;;;;;;;;;;5074189;28;20448;-72
2022/11/17 09:23:51;;;;;;;14.37;9.63;;;;;;;;;;5073391;28;20467;-71
2022/11/17 09:26:18;;;;;;;17.47;10.20;;;;;;;;;;5075073;28;20482;-71
2022/11/17 09:28:45;;;;;;;16.00;9.73;;;;;;;;;;5089228;28;20486;-71
2022/11/17 09:31:13;;;;;;;21.80;10.70;;;;;;;;;;5094916;28;20451;-72
2022/11/17 09:33:41;;;;;;;16.37;11.87;;;;;;;;;;5094575;28;20473;-71
2022/11/17 09:36:08;;;;;;;17.03;10.43;;;;;;;;;;5095106;28;20481;-72
2022/11/17 09:38:35;;;;;;;17.90;9.63;;;;;;;;;;5093076;28;20457;-72
2022/11/17 09:41:10;;;;;;;12.23;9.20;;;;;;;;;;5094831;28;20453;-71
2022/11/17 09:43:38;;;;;;;12.23;7.70;;;;;;;;;;5094288;28;20457;-72
2022/11/17 09:46:09;;;;;;;9.73;8.27;;;;;;;;;;5094575;28;20902;-71
2022/11/17 09:48:40;;;;;;;10.90;8.17;;;;;;;;;;5094860;28;20848;-72
2022/11/17 09:51:10;;;;;;;13.60;9.20;;;;;;;;;;5095096;28;20453;-71
2022/11/17 09:53:41;;;;;;;17.20;10.53;;;;;;;;;;5094127;28;20451;-71
2022/11/17 09:56:11;;;;;;;9.63;8.63;;;;;;;;;;5094866;28;20470;-72
2022/11/17 09:58:41;;;;;;;11.70;8.60;;;;;;;;;;5094709;28;20490;-72
2022/11/17 10:01:11;;;;;;;9.10;7.53;;;;;;;;;;5094877;28;20970;-72
2022/11/17 10:03:39;;;;;;;8.17;7.37;;;;;;;;;;5080325;28;21088;-72
2022/11/17 10:06:08;;;;;;;8.20;6.17;;;;;;;;;;5092076;28;20844;-72
2022/11/17 10:08:38;;;;;;;6.80;5.90;;;;;;;;;;5092904;28;20497;-71
2022/11/17 10:11:30;;;;;;;7.50;6.67;;;;;;;;;;5093417;28;20804;-72
2022/11/17 10:13:58;;;;;;;6.47;5.67;;;;;;;;;;5091200;28;20478;-72
2022/11/17 10:16:26;;;;;;;6.20;5.50;;;;;;;;;;5092849;28;20475;-72
2022/11/17 10:18:53;;;;;;;7.17;6.43;;;;;;;;;;5092536;28;20450;-72
2022/11/17 10:21:20;;;;;;;6.17;5.57;;;;;;;;;;5092121;28;20455;-72
2022/11/17 10:23:55;;;;;;;6.40;4.43;;;;;;;;;;5093351;28;20932;-72
2022/11/17 10:26:22;;;;;;;5.13;4.60;;;;;;;;;;5094071;28;20474;-72
2022/11/17 10:29:04;;;;;;;7.03;5.70;;;;;;;;;;5094214;28;20486;-72
2022/11/17 10:31:39;;;;;;;5.90;5.10;;;;;;;;;;5094463;28;20873;-72
2022/11/17 10:34:09;;;;;;;5.23;3.83;;;;;;;;;;5093935;28;20464;-72
2022/11/17 10:36:36;;;;;;;4.63;4.17;;;;;;;;;;5094084;28;20477;-72
2022/11/17 10:39:03;;;;;;;4.33;3.93;;;;;;;;;;5090933;28;20458;-72
2022/11/17 10:41:36;;;;;;;4.67;4.27;;;;;;;;;;5093866;28;20963;-72
2022/11/17 10:44:05;;;;;;;4.53;4.13;;;;;;;;;;5093499;28;20450;-73
2022/11/17 10:46:33;;;;;;;4.60;4.20;;;;;;;;;;5093378;28;20481;-74
2022/11/17 10:49:02;;;;;;;7.03;5.67;;;;;;;;;;5094192;28;21029;-74
2022/11/17 10:51:31;;;;;;;4.57;4.13;;;;;;;;;;5094038;28;20461;-71
2022/11/17 10:54:02;;;;;;;3.60;3.30;;;;;;;;;;5093492;28;20955;-73
2022/11/17 10:56:29;;;;;;;4.10;3.47;;;;;;;;;;5093928;28;20975;-73
2022/11/17 10:59:12;;;;;;;4.60;4.20;;;;;;;;;;5094013;28;20435;-73
2022/11/17 11:01:42;;;;;;;3.67;3.33;;;;;;;;;;5093903;28;20450;-72
2022/11/17 11:04:27;;;;;;;3.97;3.57;;;;;;;;;;5093239;28;20451;-72
2022/11/17 11:07:06;;;;;;;3.73;2.80;;;;;;;;;;5093748;28;20492;-73
2022/11/17 11:09:33;;;;;;;3.97;3.20;;;;;;;;;;5093702;28;21011;-73
2022/11/17 11:12:03;;;;;;;5.40;3.77;;;;;;;;;;5093571;28;20458;-72
2022/11/17 11:14:32;;;;;;;6.80;3.20;;;;;;;;;;5093061;28;20462;-72
2022/11/17 11:17:00;;;;;;;4.67;3.57;;;;;;;;;;5093316;28;20562;-72
2022/11/17 11:19:27;;;;;;;5.00;4.00;;;;;;;;;;5093574;28;20461;-72
2022/11/17 11:22:15;;;;;;;5.40;4.10;;;;;;;;;;5093037;28;20485;-72
2022/11/17 11:24:46;;;;;;;4.70;3.30;;;;;;;;;;5092922;28;20450;-72
2022/11/17 11:27:33;;;;;;;3.60;3.03;;;;;;;;;;5093242;28;20475;-72
2022/11/17 11:30:02;;;;;;;4.00;3.60;;;;;;;;;;5093257;28;20490;-72
2022/11/17 11:32:35;;;;;;;7.37;3.57;;;;;;;;;;5093223;28;20461;-72
2022/11/17 11:35:11;;;;;;;3.30;3.00;;;;;;;;;;5092887;28;20454;-72
2022/11/17 11:37:40;;;;;;;3.10;2.80;;;;;;;;;;5092965;28;20980;-72
2022/11/17 11:40:14;;;;;;;5.70;3.50;;;;;;;;;;5093565;28;20446;-72
2022/11/17 11:42:45;;;;;;;3.77;2.80;;;;;;;;;;5093251;28;20463;-72
2022/11/17 11:45:24;;;;;;;3.93;3.53;;;;;;;;;;5093089;28;20441;-73
2022/11/17 11:48:01;;;;;;;3.80;3.40;;;;;;;;;;5092975;28;20466;-72
2022/11/17 11:50:32;;;;;;;4.90;3.90;;;;;;;;;;5092948;28;20446;-72
2022/11/17 11:53:03;;;;;;;5.60;3.93;;;;;;;;;;5093156;28;20817;-72
2022/11/17 11:55:32;;;;;;;4.63;4.23;;;;;;;;;;5092455;28;20535;-72
2022/11/17 11:58:02;;;;;;;9.40;4.07;;;;;;;;;;5092905;28;20467;-73
2022/11/17 12:00:29;;;;;;;4.90;4.50;;;;;;;;;;5092690;28;20446;-72
2022/11/17 12:03:03;;;;;;;6.80;4.80;;;;;;;;;;5092797;28;20455;-72
2022/11/17 12:05:35;;;;;;;5.30;3.80;;;;;;;;;;5092486;28;20468;-72
2022/11/17 12:08:07;;;;;;;9.50;4.23;;;;;;;;;;5092716;28;20461;-73
2022/11/17 12:10:36;;;;;;;4.43;3.87;;;;;;;;;;5092763;28;20825;-72
2022/11/17 12:13:04;;;;;;;5.00;4.50;;;;;;;;;;5092636;28;20451;-72
2022/11/17 12:15:35;;;;;;;6.80;4.37;;;;;;;;;;5092177;28;20462;-72
2022/11/17 12:18:06;;;;;;;5.10;4.30;;;;;;;;;;5092834;28;20855;-72
2022/11/17 12:20:51;;;;;;;5.20;4.60;;;;;;;;;;5092630;28;20442;-72
2022/11/17 12:23:21;;;;;;;15.70;5.23;;;;;;;;;;5092610;28;20817;-72
2022/11/17 12:25:48;;;;;;;4.40;4.00;;;;;;;;;;5092082;28;20446;-72
2022/11/17 12:28:26;;;;;;;5.60;4.00;;;;;;;;;;5092698;28;20453;-72
2022/11/17 12:30:55;;;;;;;4.80;3.80;;;;;;;;;;5092625;28;20821;-73
2022/11/17 12:33:23;;;;;;;4.90;4.00;;;;;;;;;;5093465;28;20446;-72
2022/11/17 12:36:09;;;;;;;3.33;3.03;;;;;;;;;;5096108;28;20970;-72
2022/11/17 12:38:40;;;;;;;5.30;4.37;;;;;;;;;;5094912;28;20447;-72
2022/11/17 12:41:07;;;;;;;5.90;4.20;;;;;;;;;;5096780;28;20451;-73
2022/11/17 12:43:34;;;;;;;5.33;4.30;;;;;;;;;;5096564;28;20868;-72
2022/11/17 12:46:08;;;;;;;24.47;14.73;;;;;;;;;;5096484;28;20839;-72
2022/11/17 12:48:38;;;;;;;5.77;3.80;;;;;;;;;;5096353;28;20482;-72
2022/11/17 12:51:10;;;;;;;3.60;3.30;;;;;;;;;;5096711;28;20442;-72
2022/11/17 12:53:49;;;;;;;7.00;4.73;;;;;;;;;;5096219;28;20458;-72
2022/11/17 12:56:24;;;;;;;4.57;3.70;;;;;;;;;;5096273;28;20471;-72
2022/11/17 12:59:00;;;;;;;5.47;4.00;;;;;;;;;;5095886;28;20460;-73
2022/11/17 13:01:32;;;;;;;69.10;53.40;;;;;;;;;;5096197;28;21001;-72
2022/11/17 13:04:04;;;;;;;8.77;5.43;;;;;;;;;;5095649;28;20451;-72
2022/11/17 13:06:31;;;;;;;8.30;4.93;;;;;;;;;;5096140;28;20478;-72
2022/11/17 13:08:59;;;;;;;5.50;4.33;;;;;;;;;;5095888;28;20490;-72
2022/11/17 13:11:26;;;;;;;4.50;4.03;;;;;;;;;;5095907;28;20457;-72
2022/11/17 13:14:07;;;;;;;9.73;5.60;;;;;;;;;;5095394;28;20551;-72
2022/11/17 13:16:35;;;;;;;12.20;6.63;;;;;;;;;;5095872;28;20478;-72
2022/11/17 13:19:04;;;;;;;12.90;7.90;;;;;;;;;;5095738;28;20450;-72
2022/11/17 13:21:32;;;;;;;7.30;5.70;;;;;;;;;;5095623;28;20462;-72
2022/11/17 13:24:00;;;;;;;7.03;5.00;;;;;;;;;;5095234;28;20975;-72
2022/11/17 13:26:30;;;;;;;8.17;4.80;;;;;;;;;;5095568;28;20523;-72
2022/11/17 13:29:04;;;;;;;8.33;6.00;;;;;;;;;;5095435;28;20525;-72
2022/11/17 13:31:32;;;;;;;7.13;5.17;;;;;;;;;;5095578;28;20446;-72
2022/11/17 13:34:02;;;;;;;6.50;5.40;;;;;;;;;;5095041;28;20794;-72
2022/11/17 13:36:31;;;;;;;5.33;4.83;;;;;;;;;;5095266;28;20469;-73
2022/11/17 13:38:59;;;;;;;4.97;4.50;;;;;;;;;;5093205;28;20453;-72
2022/11/17 13:41:27;;;;;;;4.83;4.30;;;;;;;;;;5095346;28;20462;-71
2022/11/17 13:43:55;;;;;;;10.47;6.07;;;;;;;;;;5094597;28;20450;-72
2022/11/17 13:46:22;;;;;;;8.40;4.77;;;;;;;;;;5095142;28;20502;-72
2022/11/17 13:48:50;;;;;;;6.80;4.30;;;;;;;;;;5095146;28;20569;-72
2022/11/17 13:51:19;;;;;;;4.87;4.10;;;;;;;;;;5094992;28;20454;-72
2022/11/17 13:53:48;;;;;;;6.63;5.93;;;;;;;;;;5094848;28;20446;-72
2022/11/17 13:56:23;;;;;;;4.83;4.33;;;;;;;;;;5095276;28;20845;-72
2022/11/17 13:58:51;;;;;;;5.97;4.80;;;;;;;;;;5095002;28;20503;-72
2022/11/17 14:01:22;;;;;;;4.70;4.30;;;;;;;;;;5095028;28;20450;-71
2022/11/17 14:03:49;;;;;;;7.80;4.80;;;;;;;;;;5094706;28;20591;-72
2022/11/17 14:06:17;;;;;;;7.77;5.83;;;;;;;;;;5094817;28;20984;-72
2022/11/17 14:09:01;;;;;;;6.37;5.30;;;;;;;;;;5094704;28;20940;-72
2022/11/17 14:11:30;;;;;;;5.40;4.90;;;;;;;;;;5094878;28;20453;-72
2022/11/17 14:13:59;;;;;;;6.13;4.93;;;;;;;;;;5094197;28;20467;-72
2022/11/17 14:16:27;;;;;;;6.37;4.90;;;;;;;;;;5094644;28;20828;-72
2022/11/17 14:18:59;;;;;;;6.20;5.50;;;;;;;;;;5094614;28;20447;-72
2022/11/17 14:21:27;;;;;;;6.97;5.30;;;;;;;;;;5094441;28;20960;-72
2022/11/17 14:24:05;;;;;;;6.50;5.90;;;;;;;;;;5093893;28;20446;-72
2022/11/17 14:26:34;;;;;;;8.93;6.83;;;;;;;;;;5094490;28;20991;-72
2022/11/17 14:29:02;;;;;;;34.47;21.47;;;;;;;;;;5094557;28;20464;-72
2022/11/17 14:31:30;;;;;;;9.90;8.90;;;;;;;;;;5094321;28;20459;-72
2022/11/17 14:33:57;;;;;;;15.47;11.73;;;;;;;;;;5093939;28;20446;-72
2022/11/17 14:36:24;;;;;;;13.73;7.27;;;;;;;;;;5094250;28;20473;-72
2022/11/17 14:38:52;;;;;;;10.70;9.23;;;;;;;;;;5092459;28;20455;-72
2022/11/17 14:41:19;;;;;;;16.73;8.30;;;;;;;;;;5094340;28;20455;-73
2022/11/17 14:43:50;;;;;;;10.57;8.20;;;;;;;;;;5093651;28;20458;-72
2022/11/17 14:46:21;;;;;;;11.63;9.03;;;;;;;;;;5094271;28;20486;-72
2022/11/17 14:48:48;;;;;;;13.27;7.97;;;;;;;;;;5094194;28;20457;-72
2022/11/17 14:51:16;;;;;;;13.07;9.20;;;;;;;;;;5094089;28;20476;-72
2022/11/17 14:53:43;;;;;;;10.77;8.40;;;;;;;;;;5093608;28;20451;-72
2022/11/17 14:56:11;;;;;;;12.57;10.17;;;;;;;;;;5093199;28;20476;-72
2022/11/17 14:58:38;;;;;;;19.27;13.77;;;;;;;;;;5093949;28;20948;-72
2022/11/17 15:01:11;;;;;;;20.23;10.43;;;;;;;;;;5094002;28;20446;-72
2022/11/17 15:03:39;;;;;;;11.93;9.90;;;;;;;;;;5093301;28;20944;-73
2022/11/17 15:06:07;;;;;;;13.93;9.27;;;;;;;;;;5093410;28;20471;-72